sensor_id;sensor_type;location;lat;lon;timestamp;temperature;humidity
1411;DHT22;700;51.906;8.404;2023-12-04T00:01:23;1.30;99.90
1411;DHT22;700;51.906;8.404;2023-12-04T00:06:26;1.40;99.90
1411;DHT22;700;51.906;8.404;2023-12-04T00:11:27;1.50;99.90
1411;DHT22;700;51.906;8.404;2023-12-04T00:16:33;1.70;99.90
1411;DHT22;700;51.906;8.404;2023-12-04T00:21:34;1.40;99.90
1411;DHT22;700;51.906;8.404;2023-12-04T00:26:37;1.40;99.90
1411;DHT22;700;51.906;8.404;2023-12-04T00:31:43;1.30;99.90
1411;DHT22;700;51.906;8.404;2023-12-04T00:36:44;1.60;99.90
1411;DHT22;700;51.906;8.404;2023-12-04T00:41:47;1.30;99.90
1411;DHT22;700;51.906;8.404;2023-12-04T00:46:48;1.40;99.90
1411;DHT22;700;51.906;8.404;2023-12-04T00:51:51;1.50;99.90
1411;DHT22;700;51.906;8.404;2023-12-04T00:56:51;1.50;99.90
1411;DHT22;700;51.906;8.404;2023-12-04T01:01:52;1.80;99.90
1411;DHT22;700;51.906;8.404;2023-12-04T01:06:52;1.70;99.90
1411;DHT22;700;51.906;8.404;2023-12-04T01:11:55;1.60;99.90
1411;DHT22;700;51.906;8.404;2023-12-04T01:16:56;1.50;99.90
1411;DHT22;700;51.906;8.404;2023-12-04T01:21:59;1.40;99.90
1411;DHT22;700;51.906;8.404;2023-12-04T01:27:02;1.70;99.90
1411;DHT22;700;51.906;8.404;2023-12-04T01:32:05;1.20;99.90
1411;DHT22;700;51.906;8.404;2023-12-04T01:37:08;1.40;99.90
1411;DHT22;700;51.906;8.404;2023-12-04T01:42:09;1.50;99.90
1411;DHT22;700;51.906;8.404;2023-12-04T01:47:13;1.60;99.90
1411;DHT22;700;51.906;8.404;2023-12-04T01:52:14;1.60;99.90
1411;DHT22;700;51.906;8.404;2023-12-04T01:57:15;1.50;99.90
1411;DHT22;700;51.906;8.404;2023-12-04T02:02:16;1.80;99.90
1411;DHT22;700;51.906;8.404;2023-12-04T02:07:17;1.70;99.90
1411;DHT22;700;51.906;8.404;2023-12-04T02:12:17;1.30;99.90
1411;DHT22;700;51.906;8.404;2023-12-04T02:17:18;1.50;99.90
1411;DHT22;700;51.906;8.404;2023-12-04T02:22:20;1.60;99.90
1411;DHT22;700;51.906;8.404;2023-12-04T02:27:23;1.90;99.90
1411;DHT22;700;51.906;8.404;2023-12-04T02:32:30;1.90;99.90
1411;DHT22;700;51.906;8.404;2023-12-04T02:37:34;2.10;99.90
1411;DHT22;700;51.906;8.404;2023-12-04T02:42:35;1.90;99.90
1411;DHT22;700;51.906;8.404;2023-12-04T02:47:38;2.00;99.90
1411;DHT22;700;51.906;8.404;2023-12-04T02:52:41;2.10;99.90
1411;DHT22;700;51.906;8.404;2023-12-04T02:57:43;2.10;99.90
1411;DHT22;700;51.906;8.404;2023-12-04T03:02:44;2.40;99.90
1411;DHT22;700;51.906;8.404;2023-12-04T03:07:44;2.30;99.90
1411;DHT22;700;51.906;8.404;2023-12-04T03:12:46;2.50;99.90
1411;DHT22;700;51.906;8.404;2023-12-04T03:17:49;2.60;99.90
1411;DHT22;700;51.906;8.404;2023-12-04T03:22:49;2.60;99.90
1411;DHT22;700;51.906;8.404;2023-12-04T03:27:50;2.60;99.90
1411;DHT22;700;51.906;8.404;2023-12-04T03:32:53;2.50;99.90
1411;DHT22;700;51.906;8.404;2023-12-04T03:37:53;2.50;99.90
1411;DHT22;700;51.906;8.404;2023-12-04T03:42:54;2.80;99.90
1411;DHT22;700;51.906;8.404;2023-12-04T03:47:55;2.80;99.90
1411;DHT22;700;51.906;8.404;2023-12-04T03:52:56;2.80;99.90
1411;DHT22;700;51.906;8.404;2023-12-04T03:57:59;2.70;99.90
1411;DHT22;700;51.906;8.404;2023-12-04T04:02:59;2.70;99.90
1411;DHT22;700;51.906;8.404;2023-12-04T04:08:02;3.00;99.90
1411;DHT22;700;51.906;8.404;2023-12-04T04:13:03;2.90;99.90
1411;DHT22;700;51.906;8.404;2023-12-04T04:18:06;3.10;99.90
1411;DHT22;700;51.906;8.404;2023-12-04T04:23:09;2.90;99.90
1411;DHT22;700;51.906;8.404;2023-12-04T04:28:12;3.00;99.90
1411;DHT22;700;51.906;8.404;2023-12-04T04:33:15;2.90;99.90
1411;DHT22;700;51.906;8.404;2023-12-04T04:38:17;2.70;99.90
1411;DHT22;700;51.906;8.404;2023-12-04T04:43:19;3.30;99.90
1411;DHT22;700;51.906;8.404;2023-12-04T04:48:20;2.80;99.90
1411;DHT22;700;51.906;8.404;2023-12-04T04:53:22;3.00;99.90
1411;DHT22;700;51.906;8.404;2023-12-04T04:58:28;3.40;99.90
1411;DHT22;700;51.906;8.404;2023-12-04T05:03:31;3.50;99.90
1411;DHT22;700;51.906;8.404;2023-12-04T05:08:31;3.00;99.90
1411;DHT22;700;51.906;8.404;2023-12-04T05:13:32;2.90;99.90
1411;DHT22;700;51.906;8.404;2023-12-04T05:18:35;2.80;99.90
1411;DHT22;700;51.906;8.404;2023-12-04T05:23:41;3.00;99.90
1411;DHT22;700;51.906;8.404;2023-12-04T05:28:44;3.00;99.90
1411;DHT22;700;51.906;8.404;2023-12-04T05:33:44;3.20;99.90
1411;DHT22;700;51.906;8.404;2023-12-04T05:38:46;3.00;99.90
1411;DHT22;700;51.906;8.404;2023-12-04T05:43:46;2.90;99.90
1411;DHT22;700;51.906;8.404;2023-12-04T05:48:47;3.20;99.90
1411;DHT22;700;51.906;8.404;2023-12-04T05:53:48;3.10;99.90
1411;DHT22;700;51.906;8.404;2023-12-04T05:58:49;2.80;99.90
1411;DHT22;700;51.906;8.404;2023-12-04T06:03:49;2.90;99.90
1411;DHT22;700;51.906;8.404;2023-12-04T06:08:52;3.00;99.90
1411;DHT22;700;51.906;8.404;2023-12-04T06:13:55;3.00;99.90
1411;DHT22;700;51.906;8.404;2023-12-04T06:18:58;3.20;99.90
1411;DHT22;700;51.906;8.404;2023-12-04T06:23:59;3.10;99.90
1411;DHT22;700;51.906;8.404;2023-12-04T06:29:00;3.10;99.90
1411;DHT22;700;51.906;8.404;2023-12-04T06:34:01;2.70;99.90
1411;DHT22;700;51.906;8.404;2023-12-04T06:39:05;2.70;99.90
1411;DHT22;700;51.906;8.404;2023-12-04T06:44:09;2.90;99.90
1411;DHT22;700;51.906;8.404;2023-12-04T06:49:11;3.20;99.90
1411;DHT22;700;51.906;8.404;2023-12-04T06:54:16;3.00;99.90
1411;DHT22;700;51.906;8.404;2023-12-04T06:59:18;2.80;99.90
1411;DHT22;700;51.906;8.404;2023-12-04T07:04:21;3.00;99.90
1411;DHT22;700;51.906;8.404;2023-12-04T07:09:22;3.00;99.90
1411;DHT22;700;51.906;8.404;2023-12-04T07:14:25;3.10;99.90
1411;DHT22;700;51.906;8.404;2023-12-04T07:19:26;3.00;99.90
1411;DHT22;700;51.906;8.404;2023-12-04T07:24:29;3.10;99.90
1411;DHT22;700;51.906;8.404;2023-12-04T07:29:30;3.00;99.90
1411;DHT22;700;51.906;8.404;2023-12-04T07:34:31;2.90;99.90
1411;DHT22;700;51.906;8.404;2023-12-04T07:39:31;3.10;99.90
1411;DHT22;700;51.906;8.404;2023-12-04T07:44:34;2.90;99.90
1411;DHT22;700;51.906;8.404;2023-12-04T07:49:38;3.00;99.90
1411;DHT22;700;51.906;8.404;2023-12-04T07:54:42;3.30;99.90
1411;DHT22;700;51.906;8.404;2023-12-04T07:59:43;3.40;99.90
1411;DHT22;700;51.906;8.404;2023-12-04T08:04:43;2.90;99.90
1411;DHT22;700;51.906;8.404;2023-12-04T08:09:44;2.90;99.90
1411;DHT22;700;51.906;8.404;2023-12-04T08:14:47;3.30;99.90
1411;DHT22;700;51.906;8.404;2023-12-04T08:19:48;3.10;99.90
1411;DHT22;700;51.906;8.404;2023-12-04T08:24:48;3.10;99.90
1411;DHT22;700;51.906;8.404;2023-12-04T08:29:51;2.80;99.90
1411;DHT22;700;51.906;8.404;2023-12-04T08:34:52;3.40;99.90
1411;DHT22;700;51.906;8.404;2023-12-04T08:39:53;3.40;99.90
1411;DHT22;700;51.906;8.404;2023-12-04T08:44:56;3.30;99.90
1411;DHT22;700;51.906;8.404;2023-12-04T08:50:00;3.20;99.90
1411;DHT22;700;51.906;8.404;2023-12-04T08:55:01;3.40;99.90
1411;DHT22;700;51.906;8.404;2023-12-04T09:00:04;3.70;99.90
1411;DHT22;700;51.906;8.404;2023-12-04T09:05:05;3.60;99.90
1411;DHT22;700;51.906;8.404;2023-12-04T09:10:06;3.10;99.90
1411;DHT22;700;51.906;8.404;2023-12-04T09:15:07;3.60;99.90
1411;DHT22;700;51.906;8.404;2023-12-04T09:20:08;3.60;99.90
1411;DHT22;700;51.906;8.404;2023-12-04T09:25:09;3.60;99.90
1411;DHT22;700;51.906;8.404;2023-12-04T09:30:13;3.70;99.90
1411;DHT22;700;51.906;8.404;2023-12-04T09:35:14;3.60;99.90
1411;DHT22;700;51.906;8.404;2023-12-04T09:40:22;3.90;99.90
1411;DHT22;700;51.906;8.404;2023-12-04T09:45:23;3.90;99.90
1411;DHT22;700;51.906;8.404;2023-12-04T09:50:25;4.20;99.90
1411;DHT22;700;51.906;8.404;2023-12-04T09:55:25;3.90;99.90
1411;DHT22;700;51.906;8.404;2023-12-04T10:00:27;4.30;99.90
1411;DHT22;700;51.906;8.404;2023-12-04T10:05:31;4.10;99.90
1411;DHT22;700;51.906;8.404;2023-12-04T10:10:36;4.10;99.90
1411;DHT22;700;51.906;8.404;2023-12-04T10:15:50;4.20;99.90
1411;DHT22;700;51.906;8.404;2023-12-04T10:20:55;4.00;99.90
1411;DHT22;700;51.906;8.404;2023-12-04T10:26:00;4.50;99.90
1411;DHT22;700;51.906;8.404;2023-12-04T10:31:01;3.80;99.90
1411;DHT22;700;51.906;8.404;2023-12-04T10:36:02;3.80;99.90
1411;DHT22;700;51.906;8.404;2023-12-04T10:41:13;3.80;99.90
1411;DHT22;700;51.906;8.404;2023-12-04T10:46:14;4.00;99.90
1411;DHT22;700;51.906;8.404;2023-12-04T10:51:17;4.20;99.90
1411;DHT22;700;51.906;8.404;2023-12-04T10:56:31;3.90;99.90
1411;DHT22;700;51.906;8.404;2023-12-04T11:01:36;3.80;99.90
1411;DHT22;700;51.906;8.404;2023-12-04T11:06:39;3.40;99.90
1411;DHT22;700;51.906;8.404;2023-12-04T11:11:43;3.70;99.90
1411;DHT22;700;51.906;8.404;2023-12-04T11:16:49;3.50;99.90
1411;DHT22;700;51.906;8.404;2023-12-04T11:21:50;3.70;99.90
1411;DHT22;700;51.906;8.404;2023-12-04T11:26:52;3.90;99.90
1411;DHT22;700;51.906;8.404;2023-12-04T11:31:56;4.00;99.90
1411;DHT22;700;51.906;8.404;2023-12-04T11:36:57;3.90;99.90
1411;DHT22;700;51.906;8.404;2023-12-04T11:41:59;3.60;99.90
1411;DHT22;700;51.906;8.404;2023-12-04T11:47:05;4.00;99.90
1411;DHT22;700;51.906;8.404;2023-12-04T11:52:06;3.70;99.90
1411;DHT22;700;51.906;8.404;2023-12-04T12:02:13;4.30;99.90
1411;DHT22;700;51.906;8.404;2023-12-04T12:07:16;3.80;99.90
1411;DHT22;700;51.906;8.404;2023-12-04T12:12:17;3.90;99.90
1411;DHT22;700;51.906;8.404;2023-12-04T12:17:18;3.80;99.90
1411;DHT22;700;51.906;8.404;2023-12-04T12:22:19;3.80;99.90
1411;DHT22;700;51.906;8.404;2023-12-04T12:27:22;4.30;99.90
1411;DHT22;700;51.906;8.404;2023-12-04T12:32:29;4.30;99.90
1411;DHT22;700;51.906;8.404;2023-12-04T12:37:33;4.30;99.90
1411;DHT22;700;51.906;8.404;2023-12-04T12:42:34;4.10;99.90
1411;DHT22;700;51.906;8.404;2023-12-04T12:47:35;4.20;99.90
1411;DHT22;700;51.906;8.404;2023-12-04T12:52:36;4.00;99.90
1411;DHT22;700;51.906;8.404;2023-12-04T12:57:37;3.80;99.90
1411;DHT22;700;51.906;8.404;2023-12-04T13:02:38;4.00;99.90
1411;DHT22;700;51.906;8.404;2023-12-04T13:07:39;3.70;99.90
1411;DHT22;700;51.906;8.404;2023-12-04T13:12:42;4.10;99.90
1411;DHT22;700;51.906;8.404;2023-12-04T13:17:42;4.10;99.90
1411;DHT22;700;51.906;8.404;2023-12-04T13:22:48;4.10;99.90
1411;DHT22;700;51.906;8.404;2023-12-04T13:27:48;4.50;99.90
1411;DHT22;700;51.906;8.404;2023-12-04T13:32:49;3.60;99.90
1411;DHT22;700;51.906;8.404;2023-12-04T13:37:53;3.90;99.90
1411;DHT22;700;51.906;8.404;2023-12-04T13:43:01;4.20;99.90
1411;DHT22;700;51.906;8.404;2023-12-04T13:48:21;4.10;99.90
1411;DHT22;700;51.906;8.404;2023-12-04T13:53:21;3.90;99.90
1411;DHT22;700;51.906;8.404;2023-12-04T13:58:29;4.20;99.90
1411;DHT22;700;51.906;8.404;2023-12-04T14:03:44;4.10;99.90
1411;DHT22;700;51.906;8.404;2023-12-04T14:08:45;4.20;99.90
1411;DHT22;700;51.906;8.404;2023-12-04T14:13:46;4.70;99.90
1411;DHT22;700;51.906;8.404;2023-12-04T14:18:47;4.40;99.90
1411;DHT22;700;51.906;8.404;2023-12-04T14:23:47;4.20;99.90
1411;DHT22;700;51.906;8.404;2023-12-04T14:28:50;4.00;99.90
1411;DHT22;700;51.906;8.404;2023-12-04T14:33:51;4.20;99.90
1411;DHT22;700;51.906;8.404;2023-12-04T14:38:53;4.50;99.90
1411;DHT22;700;51.906;8.404;2023-12-04T14:43:54;4.20;99.90
1411;DHT22;700;51.906;8.404;2023-12-04T14:48:54;4.00;99.90
1411;DHT22;700;51.906;8.404;2023-12-04T14:53:55;3.70;99.90
1411;DHT22;700;51.906;8.404;2023-12-04T14:59:19;3.80;99.90
1411;DHT22;700;51.906;8.404;2023-12-04T15:04:38;3.90;99.90
1411;DHT22;700;51.906;8.404;2023-12-04T15:09:42;3.80;99.90
1411;DHT22;700;51.906;8.404;2023-12-04T15:15:01;3.70;99.90
1411;DHT22;700;51.906;8.404;2023-12-04T15:20:33;3.50;99.90
1411;DHT22;700;51.906;8.404;2023-12-04T15:25:38;3.30;99.90
1411;DHT22;700;51.906;8.404;2023-12-04T15:30:40;3.10;99.90
1411;DHT22;700;51.906;8.404;2023-12-04T15:35:44;2.80;99.90
1411;DHT22;700;51.906;8.404;2023-12-04T15:40:45;3.00;99.90
1411;DHT22;700;51.906;8.404;2023-12-04T15:45:45;3.00;99.90
1411;DHT22;700;51.906;8.404;2023-12-04T15:50:46;2.70;99.90
1411;DHT22;700;51.906;8.404;2023-12-04T15:55:46;2.70;99.90
1411;DHT22;700;51.906;8.404;2023-12-04T16:00:49;2.50;99.90
1411;DHT22;700;51.906;8.404;2023-12-04T16:05:50;2.20;99.90
1411;DHT22;700;51.906;8.404;2023-12-04T16:10:50;2.50;99.90
1411;DHT22;700;51.906;8.404;2023-12-04T16:15:51;2.60;99.90
1411;DHT22;700;51.906;8.404;2023-12-04T16:20:57;2.60;99.90
1411;DHT22;700;51.906;8.404;2023-12-04T16:26:00;2.70;99.90
1411;DHT22;700;51.906;8.404;2023-12-04T16:31:00;2.40;99.90
1411;DHT22;700;51.906;8.404;2023-12-04T16:36:01;2.80;99.90
1411;DHT22;700;51.906;8.404;2023-12-04T16:41:02;2.40;99.90
1411;DHT22;700;51.906;8.404;2023-12-04T16:46:02;2.70;99.90
1411;DHT22;700;51.906;8.404;2023-12-04T16:51:04;2.60;99.90
1411;DHT22;700;51.906;8.404;2023-12-04T16:56:12;2.70;99.90
1411;DHT22;700;51.906;8.404;2023-12-04T17:01:13;3.00;99.90
1411;DHT22;700;51.906;8.404;2023-12-04T17:06:13;2.80;99.90
1411;DHT22;700;51.906;8.404;2023-12-04T17:11:16;2.80;99.90
1411;DHT22;700;51.906;8.404;2023-12-04T17:16:17;2.90;99.90
1411;DHT22;700;51.906;8.404;2023-12-04T17:21:21;3.00;99.90
1411;DHT22;700;51.906;8.404;2023-12-04T17:26:22;2.90;99.90
1411;DHT22;700;51.906;8.404;2023-12-04T17:31:23;2.70;99.90
1411;DHT22;700;51.906;8.404;2023-12-04T17:36:23;3.00;99.90
1411;DHT22;700;51.906;8.404;2023-12-04T17:41:27;3.00;99.90
1411;DHT22;700;51.906;8.404;2023-12-04T17:46:30;3.00;99.90
1411;DHT22;700;51.906;8.404;2023-12-04T17:51:31;3.00;99.90
1411;DHT22;700;51.906;8.404;2023-12-04T17:56:34;3.10;99.90
1411;DHT22;700;51.906;8.404;2023-12-04T18:01:35;3.30;99.90
1411;DHT22;700;51.906;8.404;2023-12-04T18:06:36;3.30;99.90
1411;DHT22;700;51.906;8.404;2023-12-04T18:11:39;3.30;99.90
1411;DHT22;700;51.906;8.404;2023-12-04T18:16:39;2.90;99.90
1411;DHT22;700;51.906;8.404;2023-12-04T18:21:40;2.80;99.90
1411;DHT22;700;51.906;8.404;2023-12-04T18:26:41;2.70;99.90
1411;DHT22;700;51.906;8.404;2023-12-04T18:31:43;2.40;99.90
1411;DHT22;700;51.906;8.404;2023-12-04T18:36:46;2.50;99.90
1411;DHT22;700;51.906;8.404;2023-12-04T18:41:49;2.40;99.90
1411;DHT22;700;51.906;8.404;2023-12-04T18:46:54;2.40;99.90
1411;DHT22;700;51.906;8.404;2023-12-04T18:51:58;2.50;99.90
1411;DHT22;700;51.906;8.404;2023-12-04T18:56:59;2.30;99.90
1411;DHT22;700;51.906;8.404;2023-12-04T19:02:00;2.50;99.90
1411;DHT22;700;51.906;8.404;2023-12-04T19:07:01;2.50;99.90
1411;DHT22;700;51.906;8.404;2023-12-04T19:12:02;2.30;99.90
1411;DHT22;700;51.906;8.404;2023-12-04T19:17:08;2.20;99.90
1411;DHT22;700;51.906;8.404;2023-12-04T19:22:09;2.20;99.90
1411;DHT22;700;51.906;8.404;2023-12-04T19:27:12;2.30;99.90
1411;DHT22;700;51.906;8.404;2023-12-04T19:32:15;2.70;99.90
1411;DHT22;700;51.906;8.404;2023-12-04T19:37:15;2.30;99.90
1411;DHT22;700;51.906;8.404;2023-12-04T19:42:20;2.40;99.90
1411;DHT22;700;51.906;8.404;2023-12-04T19:47:21;2.20;99.90
1411;DHT22;700;51.906;8.404;2023-12-04T19:52:22;2.10;99.90
1411;DHT22;700;51.906;8.404;2023-12-04T19:57:22;2.30;99.90
1411;DHT22;700;51.906;8.404;2023-12-04T20:02:24;2.30;99.90
1411;DHT22;700;51.906;8.404;2023-12-04T20:07:28;2.60;99.90
1411;DHT22;700;51.906;8.404;2023-12-04T20:12:28;2.60;99.90
1411;DHT22;700;51.906;8.404;2023-12-04T20:17:30;2.70;99.90
1411;DHT22;700;51.906;8.404;2023-12-04T20:22:30;2.90;99.90
1411;DHT22;700;51.906;8.404;2023-12-04T20:27:31;2.90;99.90
1411;DHT22;700;51.906;8.404;2023-12-04T20:32:36;3.10;99.90
1411;DHT22;700;51.906;8.404;2023-12-04T20:37:39;3.10;99.90
1411;DHT22;700;51.906;8.404;2023-12-04T20:42:40;2.90;99.90
1411;DHT22;700;51.906;8.404;2023-12-04T20:47:42;3.00;99.90
1411;DHT22;700;51.906;8.404;2023-12-04T20:52:43;2.60;99.90
1411;DHT22;700;51.906;8.404;2023-12-04T20:57:44;3.00;99.90
1411;DHT22;700;51.906;8.404;2023-12-04T21:02:45;3.10;99.90
1411;DHT22;700;51.906;8.404;2023-12-04T21:07:46;3.20;99.90
1411;DHT22;700;51.906;8.404;2023-12-04T21:12:48;3.20;99.90
1411;DHT22;700;51.906;8.404;2023-12-04T21:17:50;3.00;99.90
1411;DHT22;700;51.906;8.404;2023-12-04T21:22:50;3.20;99.90
1411;DHT22;700;51.906;8.404;2023-12-04T21:27:51;3.40;99.90
1411;DHT22;700;51.906;8.404;2023-12-04T21:32:52;3.20;99.90
1411;DHT22;700;51.906;8.404;2023-12-04T21:37:55;3.30;99.90
1411;DHT22;700;51.906;8.404;2023-12-04T21:42:55;3.50;99.90
1411;DHT22;700;51.906;8.404;2023-12-04T21:47:56;3.10;99.90
1411;DHT22;700;51.906;8.404;2023-12-04T21:52:57;3.50;99.90
1411;DHT22;700;51.906;8.404;2023-12-04T21:58:00;3.70;99.90
1411;DHT22;700;51.906;8.404;2023-12-04T22:03:00;3.60;99.90
1411;DHT22;700;51.906;8.404;2023-12-04T22:08:03;3.40;99.90
1411;DHT22;700;51.906;8.404;2023-12-04T22:13:09;3.60;99.90
1411;DHT22;700;51.906;8.404;2023-12-04T22:18:09;3.60;99.90
1411;DHT22;700;51.906;8.404;2023-12-04T22:23:15;4.00;99.90
1411;DHT22;700;51.906;8.404;2023-12-04T22:28:16;3.40;99.90
1411;DHT22;700;51.906;8.404;2023-12-04T22:33:18;3.50;99.90
1411;DHT22;700;51.906;8.404;2023-12-04T22:38:18;3.60;99.90
1411;DHT22;700;51.906;8.404;2023-12-04T22:43:19;3.60;99.90
1411;DHT22;700;51.906;8.404;2023-12-04T22:48:20;3.40;99.90
1411;DHT22;700;51.906;8.404;2023-12-04T22:53:23;3.50;99.90
1411;DHT22;700;51.906;8.404;2023-12-04T22:58:23;3.70;99.90
1411;DHT22;700;51.906;8.404;2023-12-04T23:03:26;3.60;99.90
1411;DHT22;700;51.906;8.404;2023-12-04T23:08:27;3.70;99.90
1411;DHT22;700;51.906;8.404;2023-12-04T23:13:28;3.90;99.90
1411;DHT22;700;51.906;8.404;2023-12-04T23:18:28;3.90;99.90
1411;DHT22;700;51.906;8.404;2023-12-04T23:23:29;3.80;99.90
1411;DHT22;700;51.906;8.404;2023-12-04T23:28:32;3.80;99.90
1411;DHT22;700;51.906;8.404;2023-12-04T23:33:35;3.50;99.90
1411;DHT22;700;51.906;8.404;2023-12-04T23:38:35;3.60;99.90
1411;DHT22;700;51.906;8.404;2023-12-04T23:43:36;3.90;99.90
1411;DHT22;700;51.906;8.404;2023-12-04T23:48:36;3.80;99.90
1411;DHT22;700;51.906;8.404;2023-12-04T23:53:38;3.90;99.90
1411;DHT22;700;51.906;8.404;2023-12-04T23:58:40;4.10;99.90
